createdAt,value
2023-05-15T00:00:48.372Z,63.71
2023-05-15T00:01:48.368Z,63.61
2023-05-15T00:02:48.445Z,63.46
2023-05-15T00:03:48.460Z,64.33
2023-05-15T00:04:48.449Z,64.69
2023-05-15T00:05:48.441Z,64.40
2023-05-15T00:06:48.483Z,64.94
2023-05-15T00:07:48.540Z,63.98
2023-05-15T00:08:48.563Z,64.08
2023-05-15T00:09:48.654Z,64.05
2023-05-15T00:11:00.878Z,64.55
2023-05-15T00:11:49.683Z,64.03
2023-05-15T00:12:48.623Z,64.37
2023-05-15T00:13:48.635Z,64.05
2023-05-15T00:14:48.625Z,64.15
2023-05-15T00:15:48.611Z,64.20
2023-05-15T00:16:48.629Z,65.08
2023-05-15T00:17:48.644Z,65.74
2023-05-15T00:18:48.633Z,65.39
2023-05-15T00:19:48.594Z,65.00
2023-05-15T00:20:48.581Z,64.45
2023-05-15T00:21:48.592Z,64.59
2023-05-15T00:22:48.583Z,64.72
2023-05-15T00:23:48.617Z,65.23
2023-05-15T00:24:48.548Z,65.77
2023-05-15T00:25:48.580Z,65.94
2023-05-15T00:26:48.623Z,65.89
2023-05-15T00:27:48.625Z,65.76
2023-05-15T00:28:48.585Z,66.09
2023-05-15T00:29:48.596Z,66.24
2023-05-15T00:30:48.609Z,65.86
2023-05-15T00:31:48.762Z,66.05
2023-05-15T00:32:48.713Z,66.09
2023-05-15T00:33:48.636Z,66.83
2023-05-15T00:34:48.658Z,66.90
2023-05-15T00:35:48.691Z,67.04
2023-05-15T00:36:48.713Z,66.60
2023-05-15T00:37:48.702Z,66.15
2023-05-15T00:38:48.706Z,65.94
2023-05-15T00:39:48.748Z,64.99
2023-05-15T00:40:48.751Z,64.98
2023-05-15T00:41:48.865Z,64.42
2023-05-15T00:42:48.785Z,64.24
2023-05-15T00:43:48.852Z,64.68
2023-05-15T00:44:48.917Z,65.38
2023-05-15T00:45:48.934Z,64.93
2023-05-15T00:46:49.024Z,65.79
2023-05-15T00:47:49.007Z,66.11
2023-05-15T00:48:49.035Z,66.13
2023-05-15T00:49:49.040Z,65.63
2023-05-15T00:50:49.101Z,65.20
2023-05-15T00:51:49.148Z,64.28
2023-05-15T00:52:49.173Z,64.48
2023-05-15T00:53:49.224Z,64.10
2023-05-15T00:54:49.194Z,64.18
2023-05-15T00:55:49.181Z,64.79
2023-05-15T00:56:49.280Z,64.51
2023-05-15T00:57:49.276Z,64.03
2023-05-15T00:58:49.305Z,63.99
2023-05-15T00:59:49.379Z,63.73
2023-05-15T01:00:49.474Z,64.40
2023-05-15T01:01:49.488Z,64.73
2023-05-15T01:02:49.648Z,65.23
2023-05-15T01:03:49.967Z,65.40
2023-05-15T01:04:49.660Z,66.16
2023-05-15T01:05:49.725Z,65.97
2023-05-15T01:06:49.787Z,66.06
2023-05-15T01:07:49.834Z,66.00
2023-05-15T01:08:49.901Z,66.15
2023-05-15T01:09:50.002Z,65.39
2023-05-15T01:10:50.006Z,65.27
2023-05-15T01:11:50.087Z,65.68
2023-05-15T01:12:50.088Z,65.64
2023-05-15T01:13:50.159Z,65.71
2023-05-15T01:14:50.183Z,65.91
2023-05-15T01:15:50.156Z,65.71
2023-05-15T01:16:50.272Z,64.81
2023-05-15T01:17:50.312Z,64.89
2023-05-15T01:18:50.327Z,64.81
2023-05-15T01:19:50.527Z,64.64
2023-05-15T01:20:50.330Z,64.78
2023-05-15T01:21:50.369Z,64.38
2023-05-15T01:22:50.402Z,63.90
2023-05-15T01:23:50.528Z,63.99
2023-05-15T01:24:50.526Z,63.47
2023-05-15T01:25:50.583Z,63.12
2023-05-15T01:26:50.686Z,63.38
2023-05-15T01:27:50.658Z,63.45
2023-05-15T01:28:50.979Z,63.10
2023-05-15T01:29:50.714Z,63.07
2023-05-15T01:30:50.767Z,63.53
2023-05-15T01:31:50.834Z,63.68
2023-05-15T01:32:50.888Z,63.77
2023-05-15T01:33:50.889Z,63.53
2023-05-15T01:34:50.892Z,62.58
2023-05-15T01:35:50.933Z,62.50
2023-05-15T01:36:50.961Z,62.51
2023-05-15T01:37:51.022Z,62.80
2023-05-15T01:38:51.076Z,63.75
2023-05-15T01:39:51.100Z,64.75
2023-05-15T01:40:51.215Z,64.91
2023-05-15T01:41:51.266Z,64.66
2023-05-15T01:42:51.231Z,64.72
2023-05-15T01:43:51.202Z,64.38
2023-05-15T01:44:51.222Z,63.81
2023-05-15T01:45:51.258Z,63.94
2023-05-15T01:46:51.411Z,63.80
2023-05-15T01:47:51.362Z,64.03
2023-05-15T01:48:51.356Z,64.73
2023-05-15T01:49:51.620Z,64.61
2023-05-15T01:50:51.382Z,64.86
2023-05-15T01:51:51.472Z,65.50
2023-05-15T01:52:51.483Z,65.51
2023-05-15T01:53:51.578Z,66.17
2023-05-15T01:54:51.657Z,66.36
2023-05-15T01:55:51.702Z,67.09
2023-05-15T01:56:51.727Z,66.52
2023-05-15T01:57:51.732Z,66.66
2023-05-15T01:58:51.791Z,66.80
2023-05-15T01:59:51.875Z,66.84
2023-05-15T02:00:51.845Z,67.22
2023-05-15T02:01:51.980Z,67.33
2023-05-15T02:02:52.056Z,67.47
2023-05-15T02:03:52.141Z,67.00
2023-05-15T02:04:52.023Z,66.41
2023-05-15T02:05:52.115Z,65.90
2023-05-15T02:06:52.095Z,66.06
2023-05-15T02:07:52.132Z,66.21
2023-05-15T02:08:52.172Z,66.52
2023-05-15T02:09:52.157Z,66.48
2023-05-15T02:10:52.174Z,66.28
2023-05-15T02:11:52.231Z,66.04
2023-05-15T02:12:52.276Z,66.44
2023-05-15T02:13:52.334Z,66.80
2023-05-15T02:14:52.442Z,66.83
2023-05-15T02:15:52.508Z,66.96
2023-05-15T02:16:52.562Z,66.60
2023-05-15T02:17:52.699Z,66.24
2023-05-15T02:18:52.772Z,66.04
2023-05-15T02:19:52.607Z,65.77
2023-05-15T02:20:52.631Z,66.20
2023-05-15T02:21:52.613Z,66.09
2023-05-15T02:23:00.216Z,65.94
2023-05-15T02:23:52.571Z,65.79
2023-05-15T02:24:52.578Z,65.08
2023-05-15T02:25:52.614Z,64.75
2023-05-15T02:26:52.549Z,64.07
2023-05-15T02:27:52.548Z,64.19
2023-05-15T02:28:52.529Z,65.09
2023-05-15T02:29:52.546Z,65.76
2023-05-15T02:30:52.493Z,65.99
2023-05-15T02:31:52.693Z,67.14
2023-05-15T02:32:52.606Z,67.12
2023-05-15T02:33:52.511Z,66.29
2023-05-15T02:34:52.502Z,65.82
2023-05-15T02:35:52.480Z,65.43
2023-05-15T02:36:52.573Z,65.73
2023-05-15T02:37:52.626Z,65.99
2023-05-15T02:38:52.626Z,67.00
2023-05-15T02:39:52.669Z,67.47
2023-05-15T02:40:52.717Z,67.31
2023-05-15T02:41:52.779Z,67.25
2023-05-15T02:42:52.792Z,66.99
2023-05-15T02:43:52.857Z,66.84
2023-05-15T02:44:52.903Z,66.75
2023-05-15T02:45:53.043Z,66.48
2023-05-15T02:46:52.995Z,66.38
2023-05-15T02:47:53.120Z,65.69
2023-05-15T02:48:53.067Z,65.66
2023-05-15T02:49:53.140Z,64.65
2023-05-15T02:50:53.134Z,64.92
2023-05-15T02:51:53.153Z,63.69
2023-05-15T02:52:53.204Z,63.37
2023-05-15T02:53:53.238Z,63.20
2023-05-15T02:54:53.274Z,63.44
2023-05-15T02:55:53.285Z,62.68
2023-05-15T02:56:53.343Z,62.31
2023-05-15T02:57:53.368Z,62.37
2023-05-15T02:58:53.402Z,62.46
2023-05-15T02:59:53.454Z,62.49
2023-05-15T03:00:53.542Z,62.40
2023-05-15T03:01:53.509Z,62.88
2023-05-15T03:02:53.584Z,63.49
2023-05-15T03:03:53.652Z,63.53
2023-05-15T03:04:54.361Z,64.13
2023-05-15T03:05:53.618Z,62.97
2023-05-15T03:06:53.615Z,62.70
2023-05-15T03:07:53.616Z,63.01
2023-05-15T03:08:53.670Z,64.39
2023-05-15T03:09:53.749Z,64.25
2023-05-15T03:10:53.758Z,64.95
2023-05-15T03:13:13.249Z,63.38
2023-05-15T03:14:13.214Z,62.77
2023-05-15T03:15:13.229Z,64.67
2023-05-15T03:16:13.237Z,65.05
2023-05-15T03:17:13.288Z,65.67
2023-05-15T03:18:13.270Z,66.31
2023-05-15T03:19:13.226Z,66.73
2023-05-15T03:20:13.192Z,67.47
2023-05-15T03:21:13.167Z,67.19
2023-05-15T03:22:13.185Z,66.92
2023-05-15T03:23:13.210Z,66.05
2023-05-15T03:24:13.169Z,65.42
2023-05-15T03:25:13.192Z,64.62
2023-05-15T03:26:13.174Z,64.50
2023-05-15T03:27:13.209Z,63.84
2023-05-15T03:28:13.116Z,64.33
2023-05-15T03:29:13.109Z,65.30
2023-05-15T03:30:13.137Z,65.58
2023-05-15T03:31:13.157Z,66.32
2023-05-15T03:32:13.185Z,66.77
2023-05-15T03:33:13.175Z,67.23
2023-05-15T03:34:13.075Z,66.96
2023-05-15T03:35:13.180Z,66.56
2023-05-15T03:36:13.103Z,66.77
2023-05-15T03:37:13.471Z,67.15
2023-05-15T03:38:13.077Z,67.00
2023-05-15T03:39:13.105Z,66.43
2023-05-15T03:40:13.057Z,65.79
2023-05-15T03:41:13.067Z,65.50
2023-05-15T03:42:13.111Z,64.96
2023-05-15T03:43:13.072Z,64.68
2023-05-15T03:44:12.997Z,65.40
2023-05-15T03:45:13.050Z,65.06
2023-05-15T03:46:13.076Z,66.33
2023-05-15T03:47:13.033Z,66.17
2023-05-15T03:48:13.057Z,65.30
2023-05-15T03:49:12.976Z,65.03
2023-05-15T03:50:12.986Z,65.63
2023-05-15T03:51:13.009Z,65.66
2023-05-15T03:52:13.012Z,65.96
2023-05-15T03:53:12.989Z,65.53
2023-05-15T03:54:12.968Z,65.13
2023-05-15T03:55:12.979Z,65.08
2023-05-15T03:56:13.015Z,65.24
2023-05-15T03:57:13.130Z,65.83
2023-05-15T03:58:13.050Z,66.39
2023-05-15T03:59:13.126Z,66.79
2023-05-15T04:00:13.030Z,67.32
2023-05-15T04:01:13.048Z,67.83
2023-05-15T04:02:13.129Z,68.54
2023-05-15T04:03:13.293Z,68.40
2023-05-15T04:04:13.116Z,67.58
2023-05-15T04:05:13.199Z,66.64
2023-05-15T04:06:13.183Z,66.20
2023-05-15T04:07:13.195Z,66.24
2023-05-15T04:08:13.196Z,66.44
2023-05-15T04:09:13.268Z,65.91
2023-05-15T04:10:13.275Z,65.76
2023-05-15T04:11:13.299Z,65.22
2023-05-15T04:12:13.337Z,64.92
2023-05-15T04:14:32.790Z,65.39
2023-05-15T04:15:32.760Z,65.20
2023-05-15T04:16:32.843Z,65.50
2023-05-15T04:17:32.789Z,65.79
2023-05-15T04:18:32.762Z,65.59
2023-05-15T04:19:32.737Z,65.55
2023-05-15T04:20:32.767Z,65.54
2023-05-15T04:21:32.744Z,66.12
2023-05-15T04:22:32.805Z,66.26
2023-05-15T04:23:32.719Z,66.05
2023-05-15T04:24:33.031Z,65.24
2023-05-15T04:25:32.737Z,65.77
2023-05-15T04:26:32.697Z,66.86
2023-05-15T04:27:32.730Z,66.86
2023-05-15T04:28:32.686Z,66.89
2023-05-15T04:29:32.698Z,65.38
2023-05-15T04:30:32.689Z,65.74
2023-05-15T04:31:32.910Z,66.18
2023-05-15T04:32:32.748Z,66.58
2023-05-15T04:33:32.679Z,66.45
2023-05-15T04:34:32.646Z,67.41
2023-05-15T04:35:32.619Z,67.62
2023-05-15T04:36:32.653Z,67.03
2023-05-15T04:37:32.660Z,66.29
2023-05-15T04:38:32.965Z,66.53
2023-05-15T04:39:32.645Z,67.38
2023-05-15T04:40:32.597Z,67.24
2023-05-15T04:41:32.633Z,66.51
2023-05-15T04:42:32.618Z,65.91
2023-05-15T04:43:32.594Z,65.66
2023-05-15T04:44:32.610Z,65.49
2023-05-15T04:45:32.604Z,64.82
2023-05-15T04:46:32.744Z,65.21
2023-05-15T04:47:32.668Z,65.83
2023-05-15T04:48:32.573Z,65.77
2023-05-15T04:49:32.567Z,65.48
2023-05-15T04:50:32.587Z,65.79
2023-05-15T04:51:32.591Z,66.00
2023-05-15T04:52:32.559Z,66.45
2023-05-15T04:53:32.614Z,66.05
2023-05-15T04:54:32.809Z,65.72
2023-05-15T04:55:33.700Z,65.63
2023-05-15T04:56:32.533Z,65.42
2023-05-15T04:57:32.544Z,65.54
2023-05-15T04:58:32.524Z,65.60
2023-05-15T04:59:32.492Z,65.25
2023-05-15T05:00:32.503Z,65.80
2023-05-15T05:01:32.550Z,65.23
2023-05-15T05:02:32.547Z,65.04
2023-05-15T05:03:32.500Z,65.76
2023-05-15T05:04:32.466Z,66.33
2023-05-15T05:05:32.440Z,66.30
2023-05-15T05:06:32.440Z,65.98
2023-05-15T05:07:32.465Z,65.85
2023-05-15T05:08:32.529Z,65.54
2023-05-15T05:09:32.442Z,65.77
2023-05-15T05:10:32.534Z,66.15
2023-05-15T05:11:32.530Z,65.79
2023-05-15T05:12:32.693Z,65.51
2023-05-15T05:13:32.565Z,65.65
2023-05-15T05:14:32.588Z,65.22
2023-05-15T05:15:32.648Z,65.74
2023-05-15T05:16:32.694Z,65.41
2023-05-15T05:17:32.634Z,65.00
2023-05-15T05:18:32.636Z,65.22
2023-05-15T05:19:32.698Z,65.19
2023-05-15T05:20:32.713Z,64.95
2023-05-15T05:21:32.720Z,64.98
2023-05-15T05:22:32.864Z,65.98
2023-05-15T05:23:32.770Z,65.83
2023-05-15T05:24:32.767Z,66.50
2023-05-15T05:25:32.839Z,65.98
2023-05-15T05:26:32.765Z,65.98
2023-05-15T05:27:32.907Z,66.43
2023-05-15T05:28:32.964Z,66.43
2023-05-15T05:29:32.958Z,65.88
2023-05-15T05:30:33.045Z,66.38
2023-05-15T05:31:33.117Z,65.56
2023-05-15T05:32:33.135Z,65.50
2023-05-15T05:33:33.081Z,63.62
2023-05-15T05:34:33.120Z,64.01
2023-05-15T05:35:33.028Z,64.61
2023-05-15T05:36:33.024Z,64.92
2023-05-15T05:37:33.056Z,65.17
2023-05-15T05:38:33.172Z,66.39
2023-05-15T05:39:32.959Z,66.26
2023-05-15T05:40:33.056Z,66.54
2023-05-15T05:41:33.027Z,66.53
2023-05-15T05:42:33.032Z,65.89
2023-05-15T05:43:32.986Z,66.18
2023-05-15T05:44:32.983Z,65.86
2023-05-15T05:45:32.979Z,65.18
2023-05-15T05:47:54.389Z,65.87
2023-05-15T05:48:54.254Z,65.43
2023-05-15T05:49:54.939Z,64.78
2023-05-15T05:50:54.060Z,64.56
2023-05-15T05:51:54.232Z,64.31
2023-05-15T05:52:53.342Z,63.39
2023-05-15T05:53:53.288Z,63.54
2023-05-15T05:54:53.259Z,63.20
2023-05-15T05:55:53.275Z,63.65
2023-05-15T05:56:53.370Z,63.56
2023-05-15T05:57:53.429Z,63.04
2023-05-15T05:58:53.395Z,62.99
2023-05-15T05:59:53.241Z,63.22
2023-05-15T06:00:53.241Z,62.78
2023-05-15T06:01:54.132Z,63.14
2023-05-15T06:02:53.394Z,63.09
2023-05-15T06:03:53.476Z,63.30
2023-05-15T06:04:53.208Z,63.20
2023-05-15T06:05:53.142Z,61.38
2023-05-15T06:06:53.252Z,60.57
2023-05-15T06:07:54.242Z,59.50
2023-05-15T06:08:55.645Z,61.37
2023-05-15T06:09:53.303Z,62.07
2023-05-15T06:10:53.424Z,62.67
2023-05-15T06:11:53.360Z,62.19
2023-05-15T06:12:53.262Z,62.62
2023-05-15T06:13:54.009Z,63.76
2023-05-15T06:14:53.278Z,64.30
2023-05-15T06:15:53.369Z,64.17
2023-05-15T06:16:53.447Z,63.79
2023-05-15T06:17:53.471Z,63.60
2023-05-15T06:18:54.740Z,64.08
2023-05-15T06:19:53.390Z,63.85
2023-05-15T06:20:53.283Z,63.83
2023-05-15T06:21:54.136Z,63.35
2023-05-15T06:22:54.261Z,63.65
2023-05-15T06:23:54.293Z,64.45
2023-05-15T06:24:54.279Z,65.58
2023-05-15T06:25:53.348Z,64.69
2023-05-15T06:26:53.417Z,65.03
2023-05-15T06:27:53.384Z,65.21
2023-05-15T06:28:53.371Z,65.43
2023-05-15T06:29:53.312Z,64.81
2023-05-15T06:30:53.368Z,64.52
2023-05-15T06:31:53.325Z,64.38
2023-05-15T06:32:54.179Z,64.88
2023-05-15T06:33:53.325Z,64.64
2023-05-15T06:34:54.262Z,65.24
2023-05-15T06:35:53.339Z,66.34
2023-05-15T06:36:53.655Z,66.62
2023-05-15T06:37:53.271Z,66.19
2023-05-15T06:38:53.330Z,66.24
2023-05-15T06:39:54.089Z,66.32
2023-05-15T06:40:53.268Z,65.54
2023-05-15T06:41:53.356Z,64.93
2023-05-15T06:42:53.377Z,65.09
2023-05-15T06:43:54.707Z,64.35
2023-05-15T06:44:53.513Z,64.20
2023-05-15T06:45:53.427Z,64.28
2023-05-15T06:46:53.552Z,64.09
2023-05-15T06:47:53.572Z,63.58
2023-05-15T06:48:53.857Z,63.65
2023-05-15T06:49:53.523Z,63.54
2023-05-15T06:50:53.658Z,63.19
2023-05-15T06:51:54.279Z,63.21
2023-05-15T06:52:53.557Z,62.54
2023-05-15T06:53:53.614Z,61.48
2023-05-15T06:54:53.484Z,60.64
2023-05-15T06:55:54.291Z,60.03
2023-05-15T06:56:54.226Z,60.07
2023-05-15T06:57:54.184Z,60.15
2023-05-15T06:58:53.502Z,60.66
2023-05-15T06:59:53.516Z,59.88
2023-05-15T07:00:54.216Z,60.16
2023-05-15T07:01:54.325Z,59.75
2023-05-15T07:02:54.280Z,59.29
2023-05-15T07:03:54.229Z,59.09
2023-05-15T07:04:54.280Z,58.37
2023-05-15T07:05:54.310Z,58.57
2023-05-15T07:06:53.365Z,58.30
2023-05-15T07:07:54.332Z,57.71
2023-05-15T07:08:54.276Z,58.28
2023-05-15T07:09:54.285Z,57.55
2023-05-15T07:10:54.358Z,57.56
2023-05-15T07:11:53.455Z,57.77
2023-05-15T07:12:53.402Z,58.16
2023-05-15T07:13:53.964Z,58.16
2023-05-15T07:14:53.404Z,58.14
2023-05-15T07:15:54.249Z,58.00
2023-05-15T07:16:53.448Z,56.90
2023-05-15T07:17:53.543Z,57.48
2023-05-15T07:18:53.480Z,56.79
2023-05-15T07:19:53.553Z,56.83
2023-05-15T07:20:54.326Z,56.12
2023-05-15T07:21:53.346Z,56.44
2023-05-15T07:22:56.715Z,55.21
2023-05-15T07:23:53.405Z,55.46
2023-05-15T07:24:53.455Z,56.25
2023-05-15T07:25:53.464Z,56.92
2023-05-15T07:26:58.876Z,57.37
2023-05-15T07:27:53.504Z,58.43
2023-05-15T07:28:53.388Z,58.30
2023-05-15T07:29:53.509Z,58.37
2023-05-15T07:30:53.402Z,59.32
2023-05-15T07:31:53.504Z,60.42
2023-05-15T07:32:53.482Z,58.90
2023-05-15T07:33:53.747Z,57.92
2023-05-15T07:34:53.391Z,58.40
2023-05-15T07:35:53.299Z,57.99
2023-05-15T07:36:55.344Z,58.26
2023-05-15T07:37:53.477Z,59.91
2023-05-15T07:38:53.431Z,60.94
2023-05-15T07:39:53.494Z,60.72
2023-05-15T07:40:53.375Z,58.47
2023-05-15T07:41:53.445Z,58.02
2023-05-15T07:42:53.409Z,59.81
2023-05-15T07:43:53.355Z,58.91
2023-05-15T07:44:53.431Z,58.93
2023-05-15T07:45:53.513Z,58.13
2023-05-15T07:46:53.222Z,58.39
2023-05-15T07:47:53.405Z,59.26
2023-05-15T07:48:53.307Z,58.32
2023-05-15T07:49:53.468Z,57.92
2023-05-15T07:50:54.459Z,58.69
2023-05-15T07:51:53.362Z,58.96
2023-05-15T07:52:53.216Z,57.74
2023-05-15T07:53:54.720Z,58.81
2023-05-15T07:54:53.780Z,58.40
2023-05-15T07:55:53.570Z,56.60
2023-05-15T07:56:53.491Z,56.62
2023-05-15T07:57:54.058Z,58.25
2023-05-15T07:58:53.691Z,57.22
2023-05-15T07:59:53.511Z,56.83
2023-05-15T08:00:54.197Z,56.61
2023-05-15T08:01:54.216Z,56.48
2023-05-15T08:02:53.401Z,56.32
2023-05-15T08:03:53.529Z,56.06
2023-05-15T08:04:53.383Z,53.80
2023-05-15T08:05:53.464Z,51.90
2023-05-15T08:06:53.323Z,52.48
2023-05-15T08:07:54.348Z,54.40
2023-05-15T08:08:53.354Z,54.90
2023-05-15T08:09:53.434Z,55.07
2023-05-15T08:10:53.247Z,55.68
2023-05-15T08:11:53.277Z,53.51
2023-05-15T08:12:53.371Z,53.93
2023-05-15T08:13:53.457Z,54.77
2023-05-15T08:14:53.412Z,53.97
2023-05-15T08:15:54.174Z,53.81
2023-05-15T08:16:53.258Z,51.82
2023-05-15T08:17:53.319Z,50.89
2023-05-15T08:18:53.420Z,50.63
2023-05-15T08:19:53.209Z,50.15
2023-05-15T08:20:53.826Z,49.50
2023-05-15T08:21:53.528Z,50.73
2023-05-15T08:22:53.429Z,52.76
2023-05-15T08:23:53.963Z,52.90
2023-05-15T08:24:53.614Z,53.86
2023-05-15T08:25:53.605Z,53.06
2023-05-15T08:26:53.738Z,51.99
2023-05-15T08:27:53.854Z,52.39
2023-05-15T08:28:53.772Z,49.53
2023-05-15T08:29:54.288Z,48.56
2023-05-15T08:30:53.817Z,50.12
2023-05-15T08:31:53.804Z,49.95
2023-05-15T08:32:53.963Z,50.41
2023-05-15T08:33:54.636Z,49.79
2023-05-15T08:34:53.756Z,50.34
2023-05-15T08:35:54.867Z,50.43
2023-05-15T08:36:53.832Z,50.57
2023-05-15T08:37:53.988Z,50.18
2023-05-15T08:38:54.764Z,50.07
2023-05-15T08:39:55.184Z,50.30
2023-05-15T08:40:53.925Z,51.00
2023-05-15T08:41:53.970Z,52.27
2023-05-15T08:42:53.838Z,54.05
2023-05-15T08:43:53.797Z,53.83
2023-05-15T08:44:53.915Z,52.98
2023-05-15T08:45:53.861Z,52.00
2023-05-15T08:46:53.863Z,52.39
2023-05-15T08:47:53.953Z,51.58
2023-05-15T08:48:56.253Z,51.69
2023-05-15T08:49:54.381Z,51.63
2023-05-15T08:50:54.264Z,51.00
2023-05-15T08:51:53.955Z,52.21
2023-05-15T08:52:54.152Z,52.35
2023-05-15T08:53:54.034Z,52.14
2023-05-15T08:54:54.369Z,52.06
2023-05-15T08:55:54.110Z,51.68
2023-05-15T08:56:54.090Z,50.62
2023-05-15T08:57:54.074Z,51.59
2023-05-15T08:58:54.712Z,51.29
2023-05-15T08:59:55.332Z,50.74
2023-05-15T09:00:54.205Z,51.55
2023-05-15T09:01:54.169Z,51.60
2023-05-15T09:02:54.850Z,51.52
2023-05-15T09:03:54.741Z,51.88
2023-05-15T09:04:55.738Z,52.03
2023-05-15T09:05:54.124Z,52.03
2023-05-15T09:06:54.047Z,52.68
2023-05-15T09:07:54.059Z,52.63
2023-05-15T09:08:54.768Z,52.40
2023-05-15T09:09:54.371Z,52.94
2023-05-15T09:10:54.108Z,53.03
2023-05-15T09:11:54.102Z,52.68
2023-05-15T09:12:54.138Z,51.97
2023-05-15T09:13:54.256Z,52.15
2023-05-15T09:14:54.751Z,52.75
2023-05-15T09:15:55.179Z,52.63
2023-05-15T09:16:54.441Z,53.21
2023-05-15T09:17:54.388Z,53.35
2023-05-15T09:18:54.497Z,53.78
2023-05-15T09:19:54.444Z,54.11
2023-05-15T09:20:56.255Z,53.27
2023-05-15T09:21:54.584Z,53.16
2023-05-15T09:22:54.604Z,53.54
2023-05-15T09:23:54.461Z,53.12
2023-05-15T09:24:54.577Z,53.23
2023-05-15T09:25:55.207Z,53.95
2023-05-15T09:26:54.462Z,52.89
2023-05-15T09:27:54.415Z,52.49
2023-05-15T09:28:54.347Z,53.13
2023-05-15T09:29:54.516Z,53.62
2023-05-15T09:30:55.322Z,52.97
2023-05-15T09:31:54.481Z,53.24
2023-05-15T09:32:54.467Z,53.34
2023-05-15T09:33:54.476Z,53.04
2023-05-15T09:34:54.752Z,52.99
2023-05-15T09:35:54.463Z,52.72
2023-05-15T09:36:54.474Z,51.01
2023-05-15T09:37:54.461Z,50.77
2023-05-15T09:38:54.362Z,51.19
2023-05-15T09:39:54.427Z,50.94
2023-05-15T09:40:54.382Z,51.85
2023-05-15T09:41:54.539Z,52.01
2023-05-15T09:42:54.312Z,51.84
2023-05-15T09:43:54.604Z,51.74
2023-05-15T09:44:54.897Z,52.09
2023-05-15T09:45:55.475Z,51.41
2023-05-15T09:46:55.303Z,51.93
2023-05-15T09:47:54.507Z,53.41
2023-05-15T09:48:54.424Z,53.20
2023-05-15T09:49:54.331Z,53.85
2023-05-15T09:50:54.310Z,54.41
2023-05-15T09:51:54.374Z,54.74
2023-05-15T09:52:54.283Z,54.40
2023-05-15T09:53:55.463Z,53.93
2023-05-15T09:54:54.385Z,54.11
2023-05-15T09:55:54.404Z,54.62
2023-05-15T09:56:54.325Z,53.93
2023-05-15T09:57:54.317Z,54.26
2023-05-15T09:58:54.888Z,52.98
2023-05-15T09:59:54.915Z,53.14
2023-05-15T10:00:54.646Z,53.04
2023-05-15T10:01:54.685Z,53.44
2023-05-15T10:02:54.706Z,52.56
2023-05-15T10:03:54.709Z,51.96
2023-05-15T10:04:56.479Z,51.82
2023-05-15T10:05:54.536Z,51.17
2023-05-15T10:06:54.673Z,52.08
2023-05-15T10:07:54.654Z,50.89
2023-05-15T10:08:54.592Z,51.34
2023-05-15T10:09:54.602Z,51.08
2023-05-15T10:10:54.603Z,50.82
2023-05-15T10:11:54.587Z,51.15
2023-05-15T10:12:54.592Z,50.63
2023-05-15T10:13:54.634Z,50.77
2023-05-15T10:14:54.584Z,51.50
2023-05-15T10:15:55.280Z,50.35
2023-05-15T10:16:54.615Z,48.98
2023-05-15T10:17:54.574Z,48.32
2023-05-15T10:18:55.400Z,48.04
2023-05-15T10:19:58.345Z,48.39
2023-05-15T10:20:55.578Z,50.00
2023-05-15T10:21:54.503Z,48.68
2023-05-15T10:22:54.568Z,50.09
2023-05-15T10:23:54.739Z,49.66
2023-05-15T10:24:54.831Z,49.31
2023-05-15T10:25:54.577Z,49.13
2023-05-15T10:26:54.524Z,47.96
2023-05-15T10:27:54.617Z,47.98
2023-05-15T10:28:54.499Z,47.47
2023-05-15T10:29:54.827Z,47.70
2023-05-15T10:30:54.703Z,48.30
2023-05-15T10:31:54.664Z,47.73
2023-05-15T10:32:56.402Z,46.44
2023-05-15T10:33:55.492Z,47.17
2023-05-15T10:34:54.552Z,48.74
2023-05-15T10:35:54.588Z,47.40
2023-05-15T10:36:54.455Z,46.88
2023-05-15T10:37:55.477Z,46.98
2023-05-15T10:38:54.850Z,47.53
2023-05-15T10:39:54.727Z,47.09
2023-05-15T10:41:05.630Z,47.84
2023-05-15T10:41:56.593Z,47.64
2023-05-15T10:42:54.832Z,46.79
2023-05-15T10:43:54.718Z,47.85
2023-05-15T10:44:54.866Z,49.57
2023-05-15T10:45:55.244Z,49.87
2023-05-15T10:46:54.674Z,49.19
2023-05-15T10:47:54.732Z,49.04
2023-05-15T10:48:54.762Z,48.82
2023-05-15T10:49:54.680Z,48.08
2023-05-15T10:50:54.755Z,48.00
2023-05-15T10:51:54.771Z,48.16
2023-05-15T10:52:55.259Z,48.33
2023-05-15T10:53:54.656Z,49.64
2023-05-15T10:54:54.620Z,49.68
2023-05-15T10:55:55.370Z,49.25
2023-05-15T10:56:55.290Z,48.10
2023-05-15T10:57:54.625Z,48.22
2023-05-15T10:58:54.768Z,47.57
2023-05-15T10:59:54.655Z,48.10
2023-05-15T11:00:54.891Z,48.04
2023-05-15T11:01:54.573Z,46.50
2023-05-15T11:02:55.307Z,46.27
2023-05-15T11:04:54.689Z,48.08
2023-05-15T11:05:54.693Z,47.80
2023-05-15T11:06:54.585Z,48.38
2023-05-15T11:07:55.252Z,48.55
2023-05-15T11:08:54.616Z,49.12
2023-05-15T11:09:55.270Z,48.92
2023-05-15T11:10:54.907Z,49.10
2023-05-15T11:11:54.609Z,49.28
2023-05-15T11:12:54.442Z,48.81
2023-05-15T11:13:54.619Z,48.21
2023-05-15T11:14:54.539Z,46.40
2023-05-15T11:15:54.861Z,46.67
2023-05-15T11:16:54.557Z,47.55
2023-05-15T11:17:54.502Z,47.58
2023-05-15T11:18:54.671Z,47.26
2023-05-15T11:19:54.463Z,46.74
2023-05-15T11:20:54.547Z,45.63
2023-05-15T11:21:54.552Z,46.27
2023-05-15T11:22:54.510Z,47.88
2023-05-15T11:23:55.233Z,46.55
2023-05-15T11:24:54.597Z,46.74
2023-05-15T11:25:54.822Z,48.53
2023-05-15T11:26:56.115Z,47.64
2023-05-15T11:27:54.664Z,47.29
2023-05-15T11:28:54.833Z,45.43
2023-05-15T11:29:54.536Z,45.84
2023-05-15T11:30:55.007Z,45.23
2023-05-15T11:31:55.372Z,45.87
2023-05-15T11:32:55.416Z,45.19
2023-05-15T11:33:56.150Z,45.88
2023-05-15T11:34:54.905Z,45.99
2023-05-15T11:35:56.402Z,45.42
2023-05-15T11:36:55.741Z,45.42
2023-05-15T11:37:55.057Z,45.19
2023-05-15T11:38:55.993Z,45.60
2023-05-15T11:39:55.811Z,47.64
2023-05-15T11:40:55.436Z,48.00
2023-05-15T11:41:55.169Z,48.25
2023-05-15T11:42:55.111Z,48.59
2023-05-15T11:43:55.755Z,48.22
2023-05-15T11:44:56.267Z,47.68
2023-05-15T11:45:55.346Z,48.46
2023-05-15T11:46:55.906Z,48.17
2023-05-15T11:47:55.646Z,49.08
2023-05-15T11:48:55.616Z,49.64
2023-05-15T11:49:55.708Z,50.67
2023-05-15T11:50:55.767Z,51.08
2023-05-15T11:51:56.344Z,51.89
2023-05-15T11:52:55.582Z,51.11
2023-05-15T11:53:56.256Z,51.91
2023-05-15T11:54:55.569Z,51.82
2023-05-15T11:55:55.614Z,52.45
2023-05-15T11:56:55.581Z,52.20
2023-05-15T11:57:55.576Z,52.22
2023-05-15T11:58:55.558Z,53.47
2023-05-15T11:59:55.748Z,51.91
2023-05-15T12:00:56.258Z,52.99
2023-05-15T12:01:55.564Z,51.83
2023-05-15T12:02:56.273Z,50.76
2023-05-15T12:03:55.833Z,51.04
2023-05-15T12:04:56.346Z,50.02
2023-05-15T12:05:59.045Z,49.88
2023-05-15T12:06:55.601Z,49.76
2023-05-15T12:07:55.565Z,50.38
2023-05-15T12:08:55.439Z,50.00
2023-05-15T12:09:55.527Z,50.67
2023-05-15T12:10:55.514Z,50.66
2023-05-15T12:11:55.506Z,50.05
2023-05-15T12:12:55.486Z,51.21
2023-05-15T12:13:55.521Z,49.92
2023-05-15T12:14:55.447Z,50.93
2023-05-15T12:15:55.468Z,48.96
2023-05-15T12:16:56.321Z,49.50
2023-05-15T12:17:56.255Z,50.01
2023-05-15T12:18:55.524Z,47.51
2023-05-15T12:19:55.359Z,46.59
2023-05-15T12:20:55.400Z,46.53
2023-05-15T12:21:55.518Z,47.41
2023-05-15T12:22:55.356Z,44.80
2023-05-15T12:24:07.173Z,44.82
2023-05-15T12:24:56.320Z,45.44
2023-05-15T12:25:55.427Z,44.88
2023-05-15T12:26:57.492Z,45.38
2023-05-15T12:27:55.273Z,45.69
2023-05-15T12:28:56.228Z,46.44
2023-05-15T12:29:55.373Z,48.51
2023-05-15T12:30:55.386Z,47.34
2023-05-15T12:31:55.478Z,46.36
2023-05-15T12:32:55.323Z,44.03
2023-05-15T12:33:55.319Z,45.82
2023-05-15T12:34:55.242Z,46.93
2023-05-15T12:35:56.758Z,45.02
2023-05-15T12:36:55.540Z,44.71
2023-05-15T12:37:55.205Z,44.57
2023-05-15T12:38:55.202Z,43.96
2023-05-15T12:39:55.328Z,42.48
2023-05-15T12:40:55.732Z,42.16
2023-05-15T12:41:55.290Z,41.41
2023-05-15T12:42:55.723Z,41.54
2023-05-15T12:43:55.247Z,42.42
2023-05-15T12:44:55.298Z,41.48
2023-05-15T12:45:56.191Z,41.68
2023-05-15T12:46:55.335Z,41.74
2023-05-15T12:47:55.356Z,42.18
2023-05-15T12:48:55.839Z,44.50
2023-05-15T12:49:55.334Z,43.44
2023-05-15T12:50:55.788Z,42.42
2023-05-15T12:51:55.280Z,41.61
2023-05-15T12:52:55.219Z,41.46
2023-05-15T12:53:55.393Z,41.78
2023-05-15T12:54:55.176Z,42.23
2023-05-15T12:55:55.864Z,41.81
2023-05-15T12:56:56.985Z,41.20
2023-05-15T12:57:55.256Z,42.14